Terminal Aerodrome Forecast
Issued by NWS

Home | Current Version | Previous Version | Text Only | Print | Product List | Glossary On
Versions: 1 2 3 4 5 6 7 8 9 10 11 12 13 14 15 16 17 18 19 20 21 22 23 24 25 26 27 28 29 30
000
FTAK31 PANC 041736
TAFAVD
TAF
PAVD 041736Z 0418/0518 00000KT P6SM VCFG SCT001 BKN060
      TEMPO 0418/0420 BKN010
     FM042100 VRB03KT P6SM VCSH BKN045
     FM050900 VRB03KT P6SM VCSH BKN025
      AMD LTD TO CLD VIS AND WIND=

USA.gov is the U.S. government's official web portal to all federal, state and local government web resources and services.